Time;durP1;ratioP1;P1;durP2;ratioP2;P2;SDS_P1;SDS_P2;PMS_P1;PMS_P2;Temp;Humidity;BMP_temperature;BMP_pressure;BME280_temperature;BME280_humidity;BME280_pressure;Samples;Min_cycle;Max_cycle;Signal;HPM_P1;HPM_P2
2022/12/14 00:01:19;;;;;;;10.97;6.43;;;2.10;99.90;;;;;;7395669;19;20165;-79
2022/12/14 00:03:46;;;;;;;14.00;7.90;;;2.20;99.90;;;;;;7395614;19;20591;-77
2022/12/14 00:06:18;;;;;;;15.67;7.60;;;2.00;99.90;;;;;;7395377;19;20146;-78
2022/12/14 00:08:45;;;;;;;12.33;7.47;;;2.00;99.90;;;;;;7393349;19;20154;-78
2022/12/14 00:11:13;;;;;;;12.43;6.83;;;2.10;99.90;;;;;;7392745;19;20138;-77
2022/12/14 00:13:40;;;;;;;12.77;6.57;;;1.70;99.90;;;;;;7393317;19;20143;-78
2022/12/14 00:16:16;;;;;;;11.07;6.67;;;1.70;99.90;;;;;;7394410;19;20143;-78
2022/12/14 00:18:43;;;;;;;11.00;6.63;;;1.70;99.90;;;;;;7391830;19;20143;-79
2022/12/14 00:21:12;;;;;;;12.23;6.60;;;1.80;99.90;;;;;;7393993;19;20202;-77
2022/12/14 00:23:40;;;;;;;12.10;6.77;;;1.90;99.90;;;;;;7392518;19;20608;-77
2022/12/14 00:26:07;;;;;;;9.27;5.83;;;2.00;99.90;;;;;;7393294;19;20622;-77
2022/12/14 00:28:33;;;;;;;11.30;6.43;;;2.10;99.90;;;;;;7392727;19;20473;-79
2022/12/14 00:30:59;;;;;;;11.17;6.57;;;1.80;99.90;;;;;;7392694;19;20134;-78
2022/12/14 00:33:26;;;;;;;11.10;6.70;;;1.80;99.90;;;;;;7394538;19;20233;-79
2022/12/14 00:35:51;;;;;;;10.53;6.20;;;1.80;99.90;;;;;;7394206;19;20172;-79
2022/12/14 00:38:17;;;;;;;11.40;6.40;;;1.90;99.90;;;;;;7393540;19;20155;-78
2022/12/14 00:40:43;;;;;;;10.63;6.47;;;1.90;99.90;;;;;;7393931;19;20515;-79
2022/12/14 00:43:09;;;;;;;12.23;6.50;;;1.90;99.90;;;;;;7392842;19;20162;-79
2022/12/14 00:45:35;;;;;;;11.47;6.77;;;2.00;99.90;;;;;;7392737;19;20602;-79
2022/12/14 00:48:01;;;;;;;11.57;6.47;;;2.00;99.90;;;;;;7392339;19;20142;-78
2022/12/14 00:50:27;;;;;;;11.57;6.93;;;2.00;99.90;;;;;;7393953;19;20155;-79
2022/12/14 00:52:53;;;;;;;9.33;6.33;;;2.00;99.90;;;;;;7391549;19;20606;-79
2022/12/14 00:55:18;;;;;;;9.90;6.40;;;2.10;99.90;;;;;;7391895;19;20162;-78
2022/12/14 00:57:44;;;;;;;11.70;7.00;;;2.00;99.90;;;;;;7393206;19;20131;-79
2022/12/14 01:00:10;;;;;;;10.80;7.00;;;2.00;99.90;;;;;;7392449;19;20135;-80
2022/12/14 01:02:36;;;;;;;9.80;6.03;;;2.10;99.90;;;;;;7391055;19;20564;-80
2022/12/14 01:05:04;;;;;;;12.67;6.63;;;2.00;99.90;;;;;;7391608;19;20134;-78
2022/12/14 01:07:29;;;;;;;12.53;6.77;;;1.90;99.90;;;;;;7392121;19;20579;-81
2022/12/14 01:09:55;;;;;;;11.00;6.80;;;2.00;99.90;;;;;;7392504;19;20677;-79
2022/12/14 01:12:21;;;;;;;12.97;7.33;;;2.10;99.90;;;;;;7391510;19;20134;-80
2022/12/14 01:14:48;;;;;;;13.20;7.70;;;2.20;99.90;;;;;;7392321;19;20434;-79
2022/12/14 01:17:13;;;;;;;13.87;7.40;;;2.10;99.90;;;;;;7387921;19;20158;-79
2022/12/14 01:19:39;;;;;;;11.60;6.57;;;2.20;99.90;;;;;;7388628;19;20134;-77
2022/12/14 01:22:05;;;;;;;10.47;6.20;;;2.20;99.90;;;;;;7391232;19;20210;-78
2022/12/14 01:24:31;;;;;;;12.10;6.30;;;2.10;99.90;;;;;;7391157;19;20159;-78
2022/12/14 01:26:57;;;;;;;12.43;6.97;;;2.10;99.90;;;;;;7392236;19;20167;-80
2022/12/14 01:29:23;;;;;;;11.33;7.07;;;1.80;99.90;;;;;;7392100;19;20491;-79
2022/12/14 01:31:49;;;;;;;11.33;6.77;;;2.00;99.90;;;;;;7390732;19;20176;-78
2022/12/14 01:34:15;;;;;;;11.20;6.63;;;2.10;99.90;;;;;;7389295;19;20134;-79
2022/12/14 01:36:40;;;;;;;14.20;7.40;;;2.10;99.90;;;;;;7390896;19;20654;-80
2022/12/14 01:39:13;;;;;;;9.93;6.23;;;2.10;99.90;;;;;;7388477;19;20138;-78
2022/12/14 01:41:42;;;;;;;10.53;6.90;;;2.00;99.90;;;;;;7393529;19;20139;-79
2022/12/14 01:44:08;;;;;;;11.33;6.73;;;2.00;99.90;;;;;;7389442;19;20654;-77
2022/12/14 01:46:42;;;;;;;10.97;6.60;;;2.10;99.90;;;;;;7391264;19;20155;-78
2022/12/14 01:49:33;;;;;;;11.53;7.03;;;2.10;99.90;;;;;;7391366;19;20146;-78
2022/12/14 01:52:01;;;;;;;12.43;6.77;;;2.20;99.90;;;;;;7393443;19;20148;-79
2022/12/14 01:54:31;;;;;;;12.10;6.67;;;2.20;99.90;;;;;;7391507;19;20154;-80
2022/12/14 01:56:56;;;;;;;9.90;6.37;;;2.10;99.90;;;;;;7388044;19;20134;-78
2022/12/14 01:59:31;;;;;;;10.33;6.13;;;2.00;99.90;;;;;;7384839;19;20158;-79
2022/12/14 02:01:59;;;;;;;9.70;6.43;;;1.90;99.90;;;;;;7391631;19;20141;-78
2022/12/14 02:04:25;;;;;;;11.60;7.50;;;2.00;99.90;;;;;;7392448;19;20146;-79
2022/12/14 02:06:52;;;;;;;10.90;6.93;;;2.10;99.90;;;;;;7390592;19;20134;-79
2022/12/14 02:09:26;;;;;;;11.87;7.40;;;2.10;99.90;;;;;;7390724;19;20467;-80
2022/12/14 02:11:59;;;;;;;11.53;6.70;;;2.30;99.90;;;;;;7392206;19;20213;-79
2022/12/14 02:14:26;;;;;;;10.90;6.63;;;2.30;99.90;;;;;;7390054;19;20493;-80
2022/12/14 02:16:53;;;;;;;12.73;6.33;;;2.30;99.90;;;;;;7392009;19;20142;-80
2022/12/14 02:19:19;;;;;;;12.23;7.50;;;2.20;99.90;;;;;;7389640;19;20155;-79
2022/12/14 02:21:57;;;;;;;12.90;6.43;;;2.20;99.90;;;;;;7392021;19;20536;-79
2022/12/14 02:24:59;;;;;;;11.77;6.93;;;2.10;99.90;;;;;;7391446;19;20170;-78
2022/12/14 02:27:30;;;;;;;13.03;7.50;;;2.10;99.90;;;;;;7388169;19;20137;-78
2022/12/14 02:30:27;;;;;;;11.40;7.13;;;2.10;99.90;;;;;;7390294;19;20169;-80
2022/12/14 02:33:07;;;;;;;11.80;7.73;;;2.10;99.90;;;;;;7395298;19;20138;-78
2022/12/14 02:35:42;;;;;;;16.70;7.60;;;2.10;99.90;;;;;;7399247;19;20126;-79
2022/12/14 02:38:27;;;;;;;14.10;7.00;;;2.10;99.90;;;;;;7395654;19;20462;-79
2022/12/14 02:41:12;;;;;;;12.03;6.67;;;2.10;99.90;;;;;;7396382;19;20721;-80
2022/12/14 02:43:56;;;;;;;11.87;7.73;;;2.10;99.90;;;;;;7397932;19;20138;-78
2022/12/14 02:46:41;;;;;;;13.17;7.77;;;2.20;99.90;;;;;;7397684;19;20583;-79
2022/12/14 02:49:15;;;;;;;14.67;7.93;;;2.20;99.90;;;;;;7397633;19;20141;-79
2022/12/14 02:52:09;;;;;;;11.73;7.03;;;2.10;99.90;;;;;;7395701;19;20155;-79
2022/12/14 02:55:08;;;;;;;12.40;7.80;;;2.10;99.90;;;;;;7397096;19;20156;-80
2022/12/14 02:57:57;;;;;;;12.90;7.70;;;2.20;99.90;;;;;;7394657;19;20168;-80
2022/12/14 03:00:23;;;;;;;12.37;7.07;;;2.30;99.90;;;;;;7398613;19;20135;-80
2022/12/14 03:02:51;;;;;;;12.10;7.50;;;2.30;99.90;;;;;;7398027;19;20146;-77
2022/12/14 03:05:17;;;;;;;13.63;7.43;;;2.20;99.90;;;;;;7398377;19;20550;-79
2022/12/14 03:07:45;;;;;;;17.50;7.97;;;2.10;99.90;;;;;;7393094;19;20146;-80
2022/12/14 03:10:35;;;;;;;13.40;8.00;;;2.10;99.90;;;;;;7394452;19;20168;-78
2022/12/14 03:13:12;;;;;;;15.13;7.83;;;2.10;99.90;;;;;;7392950;19;20147;-79
2022/12/14 03:15:42;;;;;;;12.10;7.47;;;2.20;99.90;;;;;;7398109;19;20591;-79
2022/12/14 03:18:12;;;;;;;12.23;8.17;;;2.30;99.90;;;;;;7395608;19;20134;-79
2022/12/14 03:20:41;;;;;;;14.10;7.73;;;2.30;99.90;;;;;;7396835;19;20198;-80
2022/12/14 03:23:12;;;;;;;13.50;8.00;;;2.20;99.90;;;;;;7397438;19;20607;-79
2022/12/14 03:25:43;;;;;;;12.20;7.37;;;2.20;99.90;;;;;;7398474;19;20147;-79
2022/12/14 03:28:19;;;;;;;12.13;7.60;;;2.20;99.90;;;;;;7396464;19;20143;-78
2022/12/14 03:30:53;;;;;;;12.57;7.67;;;2.20;99.90;;;;;;7395294;19;20178;-80
2022/12/14 03:33:22;;;;;;;14.97;8.50;;;2.20;99.90;;;;;;7398772;19;20210;-78
2022/12/14 03:36:07;;;;;;;13.53;7.83;;;2.20;99.90;;;;;;7399257;19;20139;-79
2022/12/14 03:38:43;;;;;;;11.10;7.53;;;2.20;99.90;;;;;;7405535;19;20171;-79
2022/12/14 03:41:14;;;;;;;13.47;7.87;;;2.10;99.90;;;;;;7396145;19;20144;-79
2022/12/14 03:44:06;;;;;;;16.10;8.87;;;2.00;99.90;;;;;;7389003;19;20229;-79
2022/12/14 03:46:51;;;;;;;12.03;7.33;;;2.10;99.90;;;;;;7395998;19;20155;-79
2022/12/14 03:49:26;;;;;;;12.80;7.80;;;2.10;99.90;;;;;;7397588;19;20135;-79
2022/12/14 03:52:05;;;;;;;13.00;8.17;;;2.10;99.90;;;;;;7397804;19;20486;-79
2022/12/14 03:54:50;;;;;;;14.57;8.70;;;2.20;99.90;;;;;;7391863;19;20153;-80
2022/12/14 03:57:52;;;;;;;15.40;8.83;;;2.20;99.90;;;;;;7394673;19;20467;-79
2022/12/14 04:00:22;;;;;;;13.60;8.13;;;1.80;99.90;;;;;;7390242;19;20138;-78
2022/12/14 04:02:51;;;;;;;13.70;8.50;;;1.60;99.90;;;;;;7393440;19;20150;-79
2022/12/14 04:05:25;;;;;;;19.20;8.87;;;1.80;99.90;;;;;;7394725;19;20130;-79
2022/12/14 04:08:02;;;;;;;13.07;8.37;;;2.00;99.90;;;;;;7395223;19;20142;-79
2022/12/14 04:19:06;;;;;;;13.80;8.40;;;1.90;99.90;;;;;;7394921;19;20482;-79
2022/12/14 04:21:40;;;;;;;13.53;8.40;;;2.00;99.90;;;;;;7389944;19;20469;-80
2022/12/14 04:27:49;;;;;;;16.47;9.10;;;2.10;99.90;;;;;;7396232;19;20595;-80
2022/12/14 04:30:15;;;;;;;15.37;8.90;;;2.20;99.90;;;;;;7393786;19;20155;-79
2022/12/14 04:32:51;;;;;;;16.73;9.27;;;2.20;99.90;;;;;;7391256;19;20463;-79
2022/12/14 04:35:40;;;;;;;13.60;8.57;;;2.20;99.90;;;;;;7391631;19;20126;-79
2022/12/14 04:38:14;;;;;;;13.73;9.30;;;2.30;99.90;;;;;;7392137;19;20147;-79
2022/12/14 04:41:08;;;;;;;13.50;8.97;;;2.30;99.90;;;;;;7393564;19;20130;-79
2022/12/14 04:43:42;;;;;;;14.10;9.10;;;2.30;99.90;;;;;;7391850;19;20146;-80
2022/12/14 04:46:12;;;;;;;14.53;8.30;;;2.20;99.90;;;;;;7394347;19;20131;-80
2022/12/14 04:48:41;;;;;;;11.67;8.07;;;2.00;99.90;;;;;;7392851;19;20119;-79
2022/12/14 04:51:30;;;;;;;15.37;10.00;;;2.10;99.90;;;;;;7391981;19;20172;-79
2022/12/14 04:54:05;;;;;;;14.67;8.50;;;1.90;99.90;;;;;;7392317;19;20476;-79
2022/12/14 04:56:49;;;;;;;14.03;8.50;;;2.00;99.90;;;;;;7390769;19;20146;-78
2022/12/14 04:59:15;;;;;;;15.97;9.27;;;2.10;99.90;;;;;;7388288;19;20180;-79
2022/12/14 05:02:01;;;;;;;12.87;8.50;;;2.10;99.90;;;;;;7391833;19;20289;-78
2022/12/14 05:04:33;;;;;;;16.20;9.07;;;2.00;99.90;;;;;;7393167;19;20159;-79
2022/12/14 05:07:15;;;;;;;15.30;9.10;;;2.10;99.90;;;;;;7394376;19;20551;-79
2022/12/14 05:09:58;;;;;;;20.10;9.27;;;2.10;99.90;;;;;;7393222;19;20168;-79
2022/12/14 05:12:52;;;;;;;17.57;9.23;;;2.20;99.90;;;;;;7390457;19;20146;-79
2022/12/14 05:15:22;;;;;;;17.07;9.23;;;2.30;99.90;;;;;;7392632;19;20146;-79
2022/12/14 05:17:48;;;;;;;17.17;9.80;;;2.00;99.90;;;;;;7391212;19;20150;-78
2022/12/14 05:20:17;;;;;;;13.67;8.87;;;2.10;99.90;;;;;;7391622;19;20182;-80
2022/12/14 05:22:43;;;;;;;15.70;9.07;;;2.30;99.90;;;;;;7390860;19;20149;-80
2022/12/14 05:25:10;;;;;;;15.93;9.40;;;2.30;99.90;;;;;;7391052;19;20573;-79
2022/12/14 05:27:35;;;;;;;14.43;9.30;;;2.20;99.90;;;;;;7390865;19;20157;-79
2022/12/14 05:30:02;;;;;;;17.07;9.27;;;2.20;99.90;;;;;;7391539;19;20134;-80
2022/12/14 05:32:28;;;;;;;15.27;8.70;;;2.30;99.90;;;;;;7390906;19;20143;-80
2022/12/14 05:34:54;;;;;;;17.37;10.40;;;2.20;99.90;;;;;;7393534;19;20151;-80
2022/12/14 05:37:20;;;;;;;15.83;9.40;;;2.30;99.90;;;;;;7390717;19;20155;-78
2022/12/14 05:39:46;;;;;;;20.90;10.90;;;2.30;99.90;;;;;;7392085;19;20135;-78
2022/12/14 05:42:13;;;;;;;16.87;9.13;;;2.30;99.90;;;;;;7391160;19;20172;-80
2022/12/14 05:44:38;;;;;;;14.93;9.47;;;2.30;99.90;;;;;;7391464;19;20146;-79
2022/12/14 05:47:04;;;;;;;14.73;9.20;;;2.40;99.90;;;;;;7393835;19;20141;-79
2022/12/14 05:49:30;;;;;;;17.80;9.77;;;2.30;99.90;;;;;;7392888;19;20134;-80
2022/12/14 05:51:56;;;;;;;14.43;9.47;;;2.40;99.90;;;;;;7389342;19;20186;-80
2022/12/14 05:54:22;;;;;;;16.17;9.43;;;2.30;99.90;;;;;;7392527;19;20152;-80
2022/12/14 05:56:51;;;;;;;16.60;10.00;;;2.50;99.90;;;;;;7390089;19;20576;-80
2022/12/14 05:59:17;;;;;;;18.27;10.20;;;2.50;99.90;;;;;;7390215;19;20150;-80
2022/12/14 06:01:44;;;;;;;17.30;10.43;;;2.50;99.90;;;;;;7391423;19;20127;-79
2022/12/14 06:04:14;;;;;;;17.27;9.90;;;2.50;99.90;;;;;;7390506;19;20162;-78
2022/12/14 06:06:40;;;;;;;15.37;10.30;;;2.40;99.90;;;;;;7400535;19;20210;-78
2022/12/14 06:09:08;;;;;;;17.23;10.17;;;2.40;99.90;;;;;;7405477;19;20580;-78
2022/12/14 06:11:39;;;;;;;15.70;10.53;;;2.40;99.90;;;;;;7403327;19;20134;-78
2022/12/14 06:14:06;;;;;;;18.07;9.83;;;2.40;99.90;;;;;;7404610;19;20599;-80
2022/12/14 06:16:32;;;;;;;15.73;9.90;;;2.40;99.90;;;;;;7403363;19;20146;-79
2022/12/14 06:19:00;;;;;;;14.57;9.87;;;2.50;99.90;;;;;;7404340;19;20141;-79
2022/12/14 06:21:37;;;;;;;16.37;9.77;;;2.40;99.90;;;;;;7405247;19;20142;-79
2022/12/14 06:24:04;;;;;;;19.87;11.17;;;2.40;99.90;;;;;;7402391;19;20146;-77
2022/12/14 06:26:32;;;;;;;17.70;10.90;;;2.30;99.90;;;;;;7403457;19;20146;-79
2022/12/14 06:28:58;;;;;;;20.50;10.77;;;2.30;99.90;;;;;;7404815;19;20145;-79
2022/12/14 06:31:27;;;;;;;17.63;10.70;;;2.30;99.90;;;;;;7402859;19;21354;-76
2022/12/14 06:33:55;;;;;;;21.43;11.60;;;2.40;99.90;;;;;;7402944;19;20146;-77
2022/12/14 06:36:26;;;;;;;17.80;10.80;;;2.40;99.90;;;;;;7400272;19;20243;-77
2022/12/14 06:38:53;;;;;;;18.50;10.77;;;2.40;99.90;;;;;;7402153;19;20123;-77
2022/12/14 06:41:21;;;;;;;20.20;11.53;;;2.30;99.90;;;;;;7402274;19;20401;-76
2022/12/14 06:43:47;;;;;;;22.03;12.13;;;2.30;99.90;;;;;;7402174;19;20134;-76
2022/12/14 06:46:15;;;;;;;19.80;12.00;;;2.40;99.90;;;;;;7402412;19;20159;-77
2022/12/14 06:48:41;;;;;;;21.80;11.90;;;2.20;99.90;;;;;;7401960;19;20158;-77
2022/12/14 06:51:08;;;;;;;17.03;10.90;;;2.30;99.90;;;;;;7401409;19;20143;-76
2022/12/14 06:53:34;;;;;;;20.27;12.30;;;2.30;99.90;;;;;;7400410;19;20142;-77
2022/12/14 06:56:07;;;;;;;24.10;11.80;;;2.40;99.90;;;;;;7400299;19;20178;-77
2022/12/14 06:58:34;;;;;;;19.77;12.20;;;2.30;99.90;;;;;;7403896;19;20163;-75
2022/12/14 07:01:13;;;;;;;22.90;12.37;;;2.10;99.90;;;;;;7405704;19;20149;-77
2022/12/14 07:03:39;;;;;;;22.25;15.90;;;2.20;99.90;;;;;;7396291;19;20399;-77
2022/12/14 07:06:06;;;;;;;20.73;13.00;;;2.30;99.90;;;;;;7402789;19;20142;-77
2022/12/14 07:08:35;;;;;;;22.13;12.63;;;2.20;99.90;;;;;;7402242;19;20234;-76
2022/12/14 07:11:02;;;;;;;21.97;11.70;;;2.20;99.90;;;;;;7398394;19;20130;-77
2022/12/14 07:13:28;;;;;;;16.77;11.17;;;2.00;99.90;;;;;;7399000;19;20167;-78
2022/12/14 07:15:55;;;;;;;21.00;11.77;;;2.20;99.90;;;;;;7399119;19;20126;-77
2022/12/14 07:18:22;;;;;;;19.20;10.97;;;2.30;99.90;;;;;;7394097;19;20131;-78
2022/12/14 07:21:04;;;;;;;20.47;11.47;;;2.20;99.90;;;;;;7390833;19;20182;-76
2022/12/14 07:23:31;;;;;;;18.80;11.50;;;2.10;99.90;;;;;;7392413;19;20497;-77
2022/12/14 07:26:07;;;;;;;20.23;11.97;;;2.20;99.90;;;;;;7392665;19;20146;-78
2022/12/14 07:28:35;;;;;;;22.60;11.57;;;2.30;99.90;;;;;;7392502;19;20467;-77
2022/12/14 07:31:01;;;;;;;21.63;13.03;;;2.30;99.90;;;;;;7392955;19;20163;-77
2022/12/14 07:33:28;;;;;;;31.37;15.33;;;2.20;99.90;;;;;;7393278;19;20639;-76
2022/12/14 07:36:05;;;;;;;21.23;12.03;;;2.20;99.90;;;;;;7396100;19;20198;-76
2022/12/14 07:38:32;;;;;;;24.33;11.67;;;2.30;99.90;;;;;;7392667;19;20225;-76
2022/12/14 07:41:09;;;;;;;22.17;12.50;;;2.40;99.90;;;;;;7393610;19;20157;-76
2022/12/14 07:43:36;;;;;;;21.13;12.33;;;2.30;99.90;;;;;;7391961;19;20147;-77
2022/12/14 07:46:04;;;;;;;19.53;12.27;;;2.30;99.90;;;;;;7393365;19;20156;-76
2022/12/14 07:48:30;;;;;;;19.87;12.40;;;2.40;99.90;;;;;;7393639;19;20135;-77
2022/12/14 07:51:08;;;;;;;19.20;11.80;;;2.40;99.90;;;;;;7394041;19;20166;-77
2022/12/14 07:53:35;;;;;;;20.67;13.20;;;2.40;99.90;;;;;;7392713;19;20150;-75
2022/12/14 07:56:06;;;;;;;28.20;12.10;;;2.30;99.90;;;;;;7389796;19;20143;-75
2022/12/14 07:58:33;;;;;;;22.20;12.07;;;2.40;99.90;;;;;;7391595;19;20127;-76
2022/12/14 08:01:12;;;;;;;20.23;13.07;;;2.40;99.90;;;;;;7391357;19;20790;-76
2022/12/14 08:03:40;;;;;;;18.43;11.90;;;2.10;99.90;;;;;;7392407;19;20138;-76
2022/12/14 08:06:08;;;;;;;22.47;12.63;;;2.30;99.90;;;;;;7393404;19;20162;-76
2022/12/14 08:08:33;;;;;;;18.40;12.37;;;2.30;99.90;;;;;;7394913;19;20154;-77
2022/12/14 08:11:00;;;;;;;19.83;12.13;;;2.20;99.90;;;;;;7391972;19;20122;-78
2022/12/14 08:13:27;;;;;;;22.07;12.63;;;2.20;99.90;;;;;;7401620;19;20142;-78
2022/12/14 08:15:53;;;;;;;22.73;12.83;;;1.70;99.90;;;;;;7390049;19;20154;-77
2022/12/14 08:18:18;;;;;;;26.13;13.97;;;1.90;99.90;;;;;;7393225;19;20135;-78
2022/12/14 08:20:50;;;;;;;19.90;12.10;;;1.90;99.90;;;;;;7392372;19;20607;-77
2022/12/14 08:23:17;;;;;;;33.90;17.77;;;2.10;99.90;;;;;;7392735;19;20146;-78
2022/12/14 08:25:43;;;;;;;21.17;12.70;;;2.10;99.90;;;;;;7393409;19;20141;-76
2022/12/14 08:28:09;;;;;;;19.57;12.37;;;2.30;99.90;;;;;;7391834;19;20466;-77
2022/12/14 08:30:38;;;;;;;20.27;12.80;;;2.50;99.90;;;;;;7395107;19;20583;-76
2022/12/14 08:33:05;;;;;;;21.67;13.17;;;2.70;99.90;;;;;;7392239;19;20210;-76
2022/12/14 08:35:32;;;;;;;21.20;13.20;;;2.70;99.90;;;;;;7393252;19;20147;-77
2022/12/14 08:37:58;;;;;;;19.97;11.83;;;2.70;99.90;;;;;;7388867;19;20141;-75
2022/12/14 08:40:25;;;;;;;20.57;13.37;;;2.70;99.90;;;;;;7389475;19;20165;-75
2022/12/14 08:42:51;;;;;;;23.83;13.50;;;2.70;99.90;;;;;;7384821;19;20146;-73
2022/12/14 08:45:17;;;;;;;25.27;15.25;;;2.80;99.90;;;;;;7385874;19;20411;-75
2022/12/14 08:47:42;;;;;;;24.70;13.27;;;2.80;99.90;;;;;;7387761;19;20141;-77
2022/12/14 08:50:09;;;;;;;23.30;13.07;;;2.80;99.90;;;;;;7390163;19;20139;-76
2022/12/14 08:52:34;;;;;;;21.63;12.30;;;2.70;99.90;;;;;;7390900;19;20494;-77
2022/12/14 08:55:00;;;;;;;22.93;13.37;;;2.70;99.90;;;;;;7389793;19;20202;-77
2022/12/14 08:57:26;;;;;;;21.17;12.13;;;2.20;99.90;;;;;;7390960;19;20595;-76
2022/12/14 08:59:52;;;;;;;22.73;13.83;;;2.40;99.90;;;;;;7388499;19;20182;-76
2022/12/14 09:02:17;;;;;;;18.60;10.87;;;2.50;99.90;;;;;;7392605;19;20470;-74
2022/12/14 09:04:43;;;;;;;20.90;12.73;;;2.10;99.90;;;;;;7389730;19;20147;-74
2022/12/14 09:07:09;;;;;;;21.63;12.50;;;2.40;99.90;;;;;;7389718;19;20188;-77
2022/12/14 09:09:36;;;;;;;20.63;12.07;;;1.90;99.90;;;;;;7389672;19;20138;-73
2022/12/14 09:12:05;;;;;;;23.33;13.87;;;1.70;99.90;;;;;;7389256;19;20610;-74
2022/12/14 09:14:32;;;;;;;25.77;14.43;;;2.20;99.90;;;;;;7390323;19;20142;-75
2022/12/14 09:16:59;;;;;;;30.27;15.60;;;2.50;99.90;;;;;;7391748;19;20127;-77
2022/12/14 09:19:24;;;;;;;23.47;14.57;;;2.40;99.90;;;;;;7393493;19;20139;-82
2022/12/14 09:21:50;;;;;;;27.57;14.90;;;2.70;99.90;;;;;;7396959;19;20182;-83
2022/12/14 09:24:19;;;;;;;20.47;12.33;;;2.80;99.90;;;;;;7392898;19;20170;-84
2022/12/14 09:26:45;;;;;;;22.90;14.07;;;2.90;99.90;;;;;;7393114;19;20150;-79
2022/12/14 09:29:13;;;;;;;23.23;14.07;;;2.80;99.90;;;;;;7392201;19;20134;-77
2022/12/14 09:31:40;;;;;;;22.80;14.13;;;2.80;99.90;;;;;;7395332;19;20138;-78
2022/12/14 09:34:05;;;;;;;26.10;14.87;;;2.80;99.90;;;;;;7392255;19;20558;-77
2022/12/14 09:36:32;;;;;;;26.10;14.53;;;2.70;99.90;;;;;;7393037;19;20145;-79
2022/12/14 09:38:58;;;;;;;23.37;14.33;;;2.70;99.90;;;;;;7392391;19;20462;-80
2022/12/14 09:41:33;;;;;;;23.23;14.07;;;2.60;99.90;;;;;;7391930;19;20145;-82
2022/12/14 09:44:23;;;;;;;30.17;16.10;;;2.30;99.90;;;;;;7391726;19;20478;-79
2022/12/14 09:47:09;;;;;;;33.10;16.27;;;2.20;99.90;;;;;;7392861;19;20213;-83
2022/12/14 09:49:44;;;;;;;26.23;16.20;;;2.30;99.90;;;;;;7391842;19;20143;-80
2022/12/14 09:52:25;;;;;;;25.10;14.30;;;2.50;99.90;;;;;;7393008;19;20173;-80
2022/12/14 09:54:53;;;;;;;25.47;14.63;;;2.60;99.90;;;;;;7398462;19;20237;-82
2022/12/14 09:57:40;;;;;;;24.60;13.93;;;2.40;99.90;;;;;;7395805;19;20142;-78
2022/12/14 10:00:16;;;;;;;25.33;14.50;;;2.60;99.90;;;;;;7396032;19;20163;-82
2022/12/14 10:03:43;;;;;;;23.23;14.77;;;2.80;99.90;;;;;;7404091;19;20150;-82
2022/12/14 10:06:30;;;;;;;28.93;15.23;;;2.90;99.90;;;;;;7395336;19;20141;-79
2022/12/14 10:09:22;;;;;;;29.17;16.23;;;2.80;99.90;;;;;;7393372;19;20154;-78
2022/12/14 10:12:32;;;;;;;24.83;15.90;;;2.80;99.90;;;;;;7391172;19;20153;-82
2022/12/14 10:15:16;;;;;;;23.23;14.77;;;2.80;99.90;;;;;;7394577;19;20173;-78
2022/12/14 10:18:05;;;;;;;23.97;14.50;;;2.80;99.90;;;;;;7392465;19;20163;-78
2022/12/14 10:20:47;;;;;;;26.27;15.37;;;2.80;99.90;;;;;;7391635;19;20229;-78
2022/12/14 10:23:19;;;;;;;29.93;16.20;;;2.80;99.90;;;;;;7390776;19;20495;-78
2022/12/14 10:25:48;;;;;;;28.87;16.60;;;2.60;99.90;;;;;;7389939;19;20595;-80
2022/12/14 10:28:39;;;;;;;31.33;15.40;;;2.70;99.90;;;;;;7387807;19;20123;-78
2022/12/14 10:31:12;;;;;;;27.73;16.53;;;2.70;99.90;;;;;;7390690;19;20165;-80
2022/12/14 10:33:44;;;;;;;30.20;16.20;;;2.70;99.90;;;;;;7390343;19;20127;-81
2022/12/14 10:36:26;;;;;;;25.90;15.70;;;2.70;99.90;;;;;;7392046;19;20583;-79
2022/12/14 10:39:01;;;;;;;25.90;16.17;;;2.70;99.90;;;;;;7389191;19;20143;-78
2022/12/14 10:41:53;;;;;;;26.17;16.60;;;2.80;99.90;;;;;;7389226;19;20138;-79
2022/12/14 10:44:25;;;;;;;32.10;19.07;;;2.80;99.90;;;;;;7388887;19;20686;-79
2022/12/14 10:47:03;;;;;;;29.33;16.03;;;2.80;99.90;;;;;;7391266;19;20603;-79
2022/12/14 10:49:48;;;;;;;28.03;15.70;;;2.80;99.90;;;;;;7390393;19;20135;-79
2022/12/14 10:52:21;;;;;;;33.67;16.80;;;2.30;99.90;;;;;;7392447;19;20122;-79
2022/12/14 10:55:02;;;;;;;26.33;15.93;;;2.10;99.90;;;;;;7394355;19;20154;-79
2022/12/14 10:57:27;;;;;;;24.20;16.23;;;2.10;99.90;;;;;;7391647;19;20123;-78
2022/12/14 10:59:55;;;;;;;22.30;15.40;;;2.00;99.90;;;;;;7392649;19;20154;-76
2022/12/14 11:02:27;;;;;;;27.10;15.77;;;2.30;99.90;;;;;;7395118;19;20587;-77
2022/12/14 11:05:02;;;;;;;30.23;16.50;;;2.60;99.90;;;;;;7391342;19;20178;-78
2022/12/14 11:07:38;;;;;;;32.17;15.87;;;2.80;99.90;;;;;;7394837;19;20138;-78
2022/12/14 11:10:22;;;;;;;29.77;17.27;;;2.60;99.90;;;;;;7399826;19;20205;-78
2022/12/14 11:13:18;;;;;;;26.57;15.40;;;2.70;99.90;;;;;;7391287;19;20490;-79
2022/12/14 11:15:47;;;;;;;28.30;16.30;;;2.80;99.90;;;;;;7394909;19;20130;-79
2022/12/14 11:18:29;;;;;;;30.03;16.30;;;2.90;99.90;;;;;;7395569;19;20135;-79
2022/12/14 11:21:04;;;;;;;29.23;16.63;;;2.90;99.90;;;;;;7397687;19;20546;-79
2022/12/14 11:23:37;;;;;;;30.17;17.37;;;3.00;99.90;;;;;;7399694;19;20173;-79
2022/12/14 11:26:12;;;;;;;28.47;16.97;;;3.20;99.90;;;;;;7392843;19;20142;-80
2022/12/14 11:28:46;;;;;;;29.63;17.37;;;3.10;99.90;;;;;;7395139;19;20206;-79
2022/12/14 11:31:20;;;;;;;27.70;16.53;;;3.20;99.90;;;;;;7395418;19;20564;-80
2022/12/14 11:33:58;;;;;;;29.13;16.77;;;3.10;99.90;;;;;;7395727;19;20138;-80
2022/12/14 11:36:29;;;;;;;29.93;17.03;;;3.20;99.90;;;;;;7395669;19;20143;-80
2022/12/14 11:38:57;;;;;;;29.47;17.03;;;3.00;99.90;;;;;;7395698;19;20135;-79
2022/12/14 11:41:34;;;;;;;32.43;16.67;;;3.00;99.90;;;;;;7394750;19;20154;-78
2022/12/14 11:44:04;;;;;;;27.97;16.87;;;3.10;99.90;;;;;;7393505;19;20153;-79
2022/12/14 11:46:52;;;;;;;30.77;17.53;;;3.10;99.90;;;;;;7396181;19;20170;-79
2022/12/14 11:49:32;;;;;;;29.33;17.17;;;3.10;99.90;;;;;;7396789;19;20151;-81
2022/12/14 11:52:11;;;;;;;28.00;17.10;;;3.10;99.90;;;;;;7404933;19;20595;-79
2022/12/14 11:54:42;;;;;;;27.77;16.80;;;3.00;99.90;;;;;;7404874;19;20130;-79
2022/12/14 11:57:32;;;;;;;26.97;16.93;;;3.10;99.90;;;;;;7401803;19;20585;-78
2022/12/14 12:00:03;;;;;;;28.70;16.70;;;3.10;99.90;;;;;;7406330;19;20568;-82
2022/12/14 12:02:34;;;;;;;29.57;17.57;;;3.40;99.90;;;;;;7400505;19;20134;-80
2022/12/14 12:05:11;;;;;;;31.60;16.10;;;3.90;99.90;;;;;;7397694;19;20139;-82
2022/12/14 12:07:58;;;;;;;27.50;16.57;;;4.20;99.90;;;;;;7397184;19;20146;-84
2022/12/14 12:10:41;;;;;;;28.13;16.20;;;4.20;99.90;;;;;;7402216;19;20143;-82
2022/12/14 12:13:20;;;;;;;32.07;17.80;;;3.90;99.90;;;;;;7395454;19;20141;-82
2022/12/14 12:16:13;;;;;;;26.93;17.33;;;3.80;99.90;;;;;;7408245;19;20248;-81
2022/12/14 12:18:53;;;;;;;28.87;17.53;;;3.70;99.90;;;;;;7389194;19;20263;-81
2022/12/14 12:21:20;;;;;;;30.27;16.40;;;3.50;99.90;;;;;;7394830;19;20457;-80
2022/12/14 12:24:05;;;;;;;31.07;17.47;;;3.40;99.90;;;;;;7393344;19;20611;-82
2022/12/14 12:26:40;;;;;;;25.83;16.90;;;3.50;99.90;;;;;;7392956;19;20135;-81
2022/12/14 12:29:28;;;;;;;27.97;16.77;;;3.40;99.90;;;;;;7394102;19;20149;-81
2022/12/14 12:32:14;;;;;;;29.70;17.70;;;3.40;99.90;;;;;;7393552;19;20491;-81
2022/12/14 12:34:57;;;;;;;29.97;18.63;;;3.30;99.90;;;;;;7394079;19;20162;-81
2022/12/14 12:37:35;;;;;;;27.30;16.07;;;3.20;99.90;;;;;;7393455;19;20190;-82
2022/12/14 12:40:22;;;;;;;31.27;17.67;;;3.30;99.90;;;;;;7393429;19;20123;-82
2022/12/14 12:43:24;;;;;;;28.90;16.50;;;3.30;99.90;;;;;;7393853;19;20143;-81
2022/12/14 12:46:01;;;;;;;29.53;17.00;;;3.40;99.90;;;;;;7392961;19;20130;-80
2022/12/14 12:48:48;;;;;;;33.77;20.73;;;3.40;99.90;;;;;;7400676;19;20130;-79
2022/12/14 12:51:35;;;;;;;31.50;18.43;;;3.30;99.90;;;;;;7394445;19;20138;-81
2022/12/14 12:54:07;;;;;;;32.53;18.83;;;3.40;99.90;;;;;;7393756;19;20139;-82
2022/12/14 12:56:46;;;;;;;31.53;17.57;;;3.30;99.90;;;;;;7392443;19;20169;-80
2022/12/14 12:59:35;;;;;;;29.47;17.40;;;3.30;99.90;;;;;;7390288;19;20153;-81
2022/12/14 13:02:30;;;;;;;31.53;17.50;;;3.30;99.90;;;;;;7391663;19;20157;-80
2022/12/14 13:05:00;;;;;;;31.63;17.93;;;3.40;99.90;;;;;;7390562;19;20155;-78
2022/12/14 13:07:35;;;;;;;29.43;17.83;;;3.40;99.90;;;;;;7394391;19;20839;-78
2022/12/14 13:10:24;;;;;;;31.17;17.43;;;3.40;99.90;;;;;;7393568;19;20130;-81
2022/12/14 13:13:07;;;;;;;29.37;17.47;;;3.40;99.90;;;;;;7393614;19;20135;-79
2022/12/14 13:15:47;;;;;;;30.23;17.83;;;3.40;99.90;;;;;;7389002;19;20142;-78
2022/12/14 13:18:36;;;;;;;31.27;17.87;;;3.20;99.90;;;;;;7392343;19;20126;-78
2022/12/14 13:21:18;;;;;;;33.30;17.73;;;3.30;99.90;;;;;;7391948;19;20620;-76
2022/12/14 13:23:43;;;;;;;30.00;17.87;;;3.60;99.90;;;;;;7392950;19;20143;-79